< < Back
Terminal Aerodrome Forecast


Current Version              Previous Versions:   1  2  3  4  5  6  7  8  9  

Terminal Aerodrome Forecast

121
FTUS42 KFFC 040521
TAFPDK
TAF
KPDK 040521Z 0406/0506 17003KT P6SM SKC
     FM040700 00000KT P6SM SKC
     FM041700 17005KT P6SM FEW050
     FM050200 00000KT P6SM SKC=



Latest METAR

593
SAUS70 KWBC 050200 RRA
MTRPDK
METAR KPDK 050153Z 00000KT 9SM CLR 19/12 A3028 RMK AO2 SLP243
T01890117


USA.gov is the U.S. government's official web portal to all federal, state and local government web resources and services.